Time;durP1;ratioP1;P1;durP2;ratioP2;P2;SDS_P1;SDS_P2;PMS_P1;PMS_P2;Temp;Humidity;BMP_temperature;BMP_pressure;BME280_temperature;BME280_humidity;BME280_pressure;Samples;Min_cycle;Max_cycle;Signal;HPM_P1;HPM_P2
2022/06/17 00:01:04;;;;;;;1.13;0.75;;;11.50;76.10;;;;;;5103457;28;20436;-62
2022/06/17 00:03:32;;;;;;;2.00;0.90;;;11.50;76.80;;;;;;5088677;27;20167;-63
2022/06/17 00:05:59;;;;;;;1.20;0.80;;;11.40;77.50;;;;;;5110203;28;20024;-62
2022/06/17 00:08:33;;;;;;;2.50;1.00;;;11.40;78.50;;;;;;5088357;28;20044;-63
2022/06/17 00:10:58;;;;;;;1.25;0.90;;;11.30;78.30;;;;;;5069819;28;20029;-62
2022/06/17 00:13:25;;;;;;;1.55;1.05;;;11.30;79.80;;;;;;5092228;28;20691;-62
2022/06/17 00:15:51;;;;;;;1.33;0.88;;;11.20;79.90;;;;;;5109707;28;20031;-63
2022/06/17 00:18:19;;;;;;;2.42;0.80;;;11.20;80.80;;;;;;5088353;28;20028;-63
2022/06/17 00:20:46;;;;;;;1.00;0.90;;;11.10;81.70;;;;;;5109970;28;20020;-63
2022/06/17 00:23:14;;;;;;;0.80;0.80;;;11.10;82.80;;;;;;5088255;28;20032;-63
2022/06/17 00:25:40;;;;;;;2.15;1.08;;;11.00;84.20;;;;;;5109621;28;20024;-63
2022/06/17 00:28:15;;;;;;;1.40;0.90;;;11.00;85.60;;;;;;5088227;28;20139;-62
2022/06/17 00:30:41;;;;;;;1.02;0.75;;;11.00;85.90;;;;;;5068243;28;20099;-62
2022/06/17 00:33:08;;;;;;;1.27;0.75;;;11.00;85.40;;;;;;5092871;28;20392;-62
2022/06/17 00:35:39;;;;;;;2.03;0.88;;;10.90;86.80;;;;;;5109257;28;20028;-63
2022/06/17 00:38:09;;;;;;;1.02;0.90;;;10.90;87.40;;;;;;5079802;28;20499;-63
2022/06/17 00:40:35;;;;;;;3.00;1.10;;;10.90;90.10;;;;;;5109728;28;20038;-63
2022/06/17 00:43:05;;;;;;;0.95;0.70;;;10.80;88.90;;;;;;5088029;28;20107;-62
2022/06/17 00:45:37;;;;;;;1.05;0.95;;;10.80;88.50;;;;;;5089081;28;20071;-63
2022/06/17 00:48:09;;;;;;;2.30;0.98;;;10.80;89.50;;;;;;5079109;28;20120;-62
2022/06/17 00:50:50;;;;;;;2.78;1.00;;;10.70;90.30;;;;;;5069054;28;20020;-62
2022/06/17 00:53:20;;;;;;;1.05;0.90;;;10.70;90.90;;;;;;5081319;28;20020;-63
2022/06/17 00:55:59;;;;;;;1.15;1.05;;;10.60;91.10;;;;;;5069074;28;20040;-62
2022/06/17 00:58:31;;;;;;;1.25;1.15;;;10.60;92.00;;;;;;5087637;28;20032;-62
2022/06/17 01:01:01;;;;;;;1.83;1.10;;;10.50;92.10;;;;;;5067445;28;20459;-51
2022/06/17 01:03:32;;;;;;;1.52;0.98;;;10.50;92.40;;;;;;5091876;28;20020;-51
2022/06/17 01:06:19;;;;;;;1.77;0.88;;;10.50;93.20;;;;;;5068775;28;20069;-50
2022/06/17 01:11:41;;;;;;;3.05;0.90;;;10.40;94.10;;;;;;5067513;28;20075;-47
2022/06/17 01:14:11;;;;;;;1.15;0.85;;;10.30;94.90;;;;;;5088418;28;20020;-48
2022/06/17 01:16:39;;;;;;;1.52;0.90;;;10.30;95.30;;;;;;5107939;28;20019;-52
2022/06/17 01:19:28;;;;;;;1.33;1.10;;;10.30;95.70;;;;;;5068854;28;20060;-48
2022/06/17 01:22:26;;;;;;;1.50;1.10;;;10.20;95.80;;;;;;5069291;28;20029;-51
2022/06/17 01:25:03;;;;;;;1.38;0.80;;;10.20;97.00;;;;;;5088793;28;20704;-52
2022/06/17 01:27:33;;;;;;;0.82;0.82;;;10.10;98.00;;;;;;5073755;28;20067;-53
2022/06/17 01:29:59;;;;;;;3.88;1.00;;;10.10;96.70;;;;;;5088695;28;20024;-50
2022/06/17 01:32:29;;;;;;;1.65;1.10;;;10.00;96.80;;;;;;5099515;28;20040;-49
2022/06/17 01:34:54;;;;;;;1.13;1.02;;;10.00;97.00;;;;;;5088828;28;20034;-51
2022/06/17 01:37:21;;;;;;;1.05;0.60;;;10.00;98.10;;;;;;5100143;28;20024;-49
2022/06/17 01:39:47;;;;;;;0.93;0.90;;;10.00;99.00;;;;;;5096538;28;20057;-50
2022/06/17 01:42:13;;;;;;;1.35;1.00;;;9.90;99.20;;;;;;5088750;28;20552;-49
2022/06/17 01:44:40;;;;;;;2.85;1.10;;;9.90;99.60;;;;;;5106080;28;20107;-48
2022/06/17 01:47:12;;;;;;;2.38;1.02;;;9.90;99.90;;;;;;5088697;28;20027;-49
2022/06/17 01:49:45;;;;;;;1.67;1.17;;;9.90;99.90;;;;;;5083384;28;20118;-49
2022/06/17 01:52:16;;;;;;;1.25;1.00;;;9.80;99.80;;;;;;5068338;28;20049;-49
2022/06/17 01:54:50;;;;;;;1.23;1.13;;;9.80;99.90;;;;;;5084360;28;20050;-48
2022/06/17 01:57:20;;;;;;;1.67;1.10;;;9.70;99.90;;;;;;5068087;28;20028;-51
2022/06/17 01:59:52;;;;;;;1.80;1.15;;;9.70;99.90;;;;;;5084726;28;20039;-48
2022/06/17 02:02:18;;;;;;;1.33;0.90;;;9.60;99.90;;;;;;5067988;28;20063;-52
2022/06/17 02:04:48;;;;;;;2.75;1.20;;;9.60;99.90;;;;;;5104352;28;20039;-49
2022/06/17 02:07:19;;;;;;;2.30;1.48;;;9.60;99.90;;;;;;5088226;28;20035;-51
2022/06/17 02:09:46;;;;;;;1.92;1.30;;;9.50;99.90;;;;;;5085252;28;20028;-48
2022/06/17 02:12:14;;;;;;;1.20;1.00;;;9.50;99.90;;;;;;5088201;28;20503;-55
2022/06/17 02:14:40;;;;;;;1.00;0.90;;;9.40;99.90;;;;;;5106250;28;20039;-51
2022/06/17 02:17:06;;;;;;;3.80;1.23;;;9.30;99.90;;;;;;5088526;28;20443;-54
2022/06/17 02:19:36;;;;;;;1.92;1.30;;;9.30;99.90;;;;;;5105585;28;20412;-48
2022/06/17 02:22:07;;;;;;;2.03;1.33;;;9.30;99.90;;;;;;5108736;28;20035;-49
2022/06/17 02:24:34;;;;;;;1.13;0.90;;;9.20;99.90;;;;;;5081937;28;20050;-48
2022/06/17 02:27:03;;;;;;;2.83;1.35;;;9.20;99.90;;;;;;5093067;28;20110;-47
2022/06/17 02:29:32;;;;;;;2.65;1.33;;;9.20;99.90;;;;;;5110212;28;20567;-51
2022/06/17 02:32:00;;;;;;;1.10;1.00;;;9.20;99.90;;;;;;5110803;28;20027;-49
2022/06/17 02:34:27;;;;;;;2.00;1.15;;;9.10;99.90;;;;;;5097127;28;20062;-51
2022/06/17 02:36:58;;;;;;;1.30;1.20;;;9.10;99.90;;;;;;5112145;28;20024;-49
2022/06/17 02:39:24;;;;;;;1.88;1.55;;;9.10;99.90;;;;;;5082269;28;20134;-50
2022/06/17 02:41:51;;;;;;;1.92;1.25;;;9.10;99.90;;;;;;5112417;28;20157;-51
2022/06/17 02:44:39;;;;;;;1.20;1.10;;;9.10;99.90;;;;;;5095452;28;20419;-50
2022/06/17 02:47:06;;;;;;;3.55;1.25;;;9.10;99.90;;;;;;5091223;28;20032;-53
2022/06/17 02:49:35;;;;;;;2.50;1.40;;;9.10;99.90;;;;;;5109466;28;20040;-51
2022/06/17 02:52:06;;;;;;;1.80;1.50;;;9.20;99.90;;;;;;5112117;28;20020;-51
2022/06/17 02:54:36;;;;;;;1.60;1.48;;;9.10;99.90;;;;;;5083275;28;20054;-50
2022/06/17 02:57:03;;;;;;;1.65;1.55;;;9.20;99.90;;;;;;5111722;28;20433;-52
2022/06/17 02:59:51;;;;;;;4.57;2.10;;;9.20;99.90;;;;;;5096597;28;20024;-50
2022/06/17 03:02:48;;;;;;;1.80;1.60;;;9.20;99.90;;;;;;5091018;28;20027;-47
2022/06/17 03:05:30;;;;;;;;;;;9.30;99.90;;;;;;5087800;28;20201;-49
2022/06/17 03:07:58;;;;;;;3.47;1.35;;;9.30;99.90;;;;;;5091538;28;19998;-50
2022/06/17 03:10:31;;;;;;;2.75;1.60;;;9.30;99.90;;;;;;5094350;28;20032;-54
2022/06/17 03:13:05;;;;;;;2.33;1.50;;;9.30;99.90;;;;;;5070966;28;20028;-51
2022/06/17 03:15:31;;;;;;;2.85;2.20;;;9.40;99.90;;;;;;5084979;28;20024;-49
2022/06/17 03:17:56;;;;;;;2.70;1.90;;;9.40;99.90;;;;;;5110376;28;20476;-50
2022/06/17 03:20:26;;;;;;;3.50;2.33;;;9.50;99.90;;;;;;5089747;28;20104;-51
2022/06/17 03:22:58;;;;;;;4.72;2.00;;;9.50;99.90;;;;;;5111259;28;20051;-49
2022/06/17 03:25:31;;;;;;;5.10;1.80;;;9.50;99.90;;;;;;5083791;28;20058;-52
2022/06/17 03:28:01;;;;;;;2.63;2.20;;;9.60;99.90;;;;;;5092752;28;20043;-51
2022/06/17 03:30:38;;;;;;;2.17;1.70;;;9.60;99.90;;;;;;5088687;28;20032;-48
2022/06/17 03:33:28;;;;;;;3.25;1.67;;;9.70;99.90;;;;;;5070561;28;20085;-50
2022/06/17 03:35:58;;;;;;;2.08;1.85;;;9.90;99.90;;;;;;5091566;28;20053;-48
2022/06/17 03:38:38;;;;;;;3.15;1.98;;;10.00;99.90;;;;;;5109752;28;20600;-48
2022/06/17 03:41:12;;;;;;;3.22;2.00;;;10.50;99.90;;;;;;5070319;28;20111;-52
2022/06/17 03:43:59;;;;;;;1.45;0.95;;;12.00;99.90;;;;;;5090768;28;20120;-50
2022/06/17 03:46:27;;;;;;;3.03;1.70;;;13.50;94.20;;;;;;5070385;28;20036;-49
2022/06/17 03:49:16;;;;;;;2.30;1.60;;;14.00;87.20;;;;;;5092962;28;20111;-51
2022/06/17 03:51:42;;;;;;;3.20;1.30;;;15.40;77.00;;;;;;5070334;28;20040;-48
2022/06/17 03:54:14;;;;;;;3.17;1.50;;;16.90;64.00;;;;;;5090677;28;20028;-49
2022/06/17 03:56:42;;;;;;;1.92;1.10;;;18.20;54.60;;;;;;5070302;28;20078;-53
2022/06/17 03:59:15;;;;;;;2.03;1.40;;;19.30;48.50;;;;;;5090756;28;20495;-49
2022/06/17 04:01:45;;;;;;;1.70;1.20;;;20.40;43.10;;;;;;5064436;28;20036;-48
2022/06/17 04:04:20;;;;;;;1.00;0.90;;;21.40;39.70;;;;;;5088300;28;20042;-51
2022/06/17 04:06:49;;;;;;;1.30;1.13;;;22.30;34.70;;;;;;5083518;28;20066;-51
2022/06/17 04:09:18;;;;;;;1.60;0.98;;;23.00;31.50;;;;;;5089966;28;20032;-48
2022/06/17 04:11:49;;;;;;;1.45;1.05;;;23.80;30.00;;;;;;5087347;28;20484;-51
2022/06/17 04:14:30;;;;;;;1.15;0.73;;;24.60;27.40;;;;;;5080654;28;20038;-49
2022/06/17 04:17:07;;;;;;;2.10;1.02;;;25.20;24.00;;;;;;5085296;28;20384;-53
2022/06/17 04:19:32;;;;;;;1.10;0.80;;;25.80;24.70;;;;;;5069448;28;20056;-52
2022/06/17 04:22:20;;;;;;;2.72;1.00;;;26.00;23.50;;;;;;5089977;28;20070;-53
2022/06/17 04:24:57;;;;;;;7.68;1.30;;;26.30;21.60;;;;;;5070900;28;20391;-51
2022/06/17 04:27:24;;;;;;;0.90;0.90;;;26.60;19.40;;;;;;5096049;28;20442;-50
2022/06/17 04:29:53;;;;;;;1.52;1.08;;;26.80;20.20;;;;;;5104473;28;20031;-52
2022/06/17 04:32:25;;;;;;;1.38;0.90;;;27.30;18.40;;;;;;5089888;28;20024;-50
2022/06/17 04:34:51;;;;;;;1.88;1.20;;;28.10;16.40;;;;;;5071672;28;20085;-54
2022/06/17 04:37:20;;;;;;;1.50;1.02;;;28.90;15.90;;;;;;5089319;28;20109;-52
2022/06/17 04:39:53;;;;;;;4.80;1.17;;;28.70;14.80;;;;;;5107678;28;20173;-52
2022/06/17 04:42:24;;;;;;;1.95;1.08;;;29.10;10.90;;;;;;5089359;28;20058;-51
2022/06/17 04:44:50;;;;;;;1.23;1.13;;;28.80;13.20;;;;;;5077629;28;20031;-50
2022/06/17 04:47:20;;;;;;;2.47;1.10;;;27.20;15.20;;;;;;5109233;28;20047;-51
2022/06/17 04:49:52;;;;;;;5.25;1.40;;;29.10;13.30;;;;;;5082724;28;20430;-51
2022/06/17 04:52:23;;;;;;;1.42;1.10;;;30.60;10.10;;;;;;5089314;28;20468;-50
2022/06/17 04:54:49;;;;;;;1.75;1.05;;;30.10;8.70;;;;;;5107194;28;20050;-48
2022/06/17 04:57:15;;;;;;;2.22;1.20;;;28.50;10.80;;;;;;5109893;28;20478;-49
2022/06/17 04:59:47;;;;;;;2.47;1.20;;;26.90;13.00;;;;;;5083393;28;20035;-50
2022/06/17 05:02:25;;;;;;;1.73;1.10;;;25.90;14.50;;;;;;5088989;28;20020;-52
2022/06/17 05:04:54;;;;;;;2.13;1.15;;;25.90;12.30;;;;;;5107485;28;20027;-49
2022/06/17 05:07:20;;;;;;;1.92;0.95;;;27.40;12.30;;;;;;5109493;28;20507;-50
2022/06/17 05:09:59;;;;;;;3.50;1.50;;;28.40;11.20;;;;;;5089728;28;20116;-63
2022/06/17 05:12:32;;;;;;;2.55;1.20;;;30.30;8.20;;;;;;5109502;28;20390;-63
2022/06/17 05:15:06;;;;;;;2.53;1.23;;;31.50;6.50;;;;;;5070308;28;20031;-62
2022/06/17 05:17:32;;;;;;;1.20;1.10;;;32.80;4.60;;;;;;5088935;28;20023;-63
2022/06/17 05:19:58;;;;;;;3.55;1.35;;;33.10;4.70;;;;;;5103064;28;20043;-63
2022/06/17 05:22:36;;;;;;;2.78;1.20;;;33.90;4.10;;;;;;5089103;28;20376;-63
2022/06/17 05:25:05;;;;;;;4.70;1.40;;;34.80;1.00;;;;;;5075244;28;20019;-63
2022/06/17 05:27:31;;;;;;;3.90;1.20;;;35.50;2.10;;;;;;5101376;28;20040;-63
2022/06/17 05:29:56;;;;;;;1.58;1.20;;;36.10;1.20;;;;;;5089911;28;20027;-63
2022/06/17 05:32:22;;;;;;;4.28;1.42;;;36.50;1.00;;;;;;5096320;28;20039;-63
2022/06/17 05:34:48;;;;;;;3.05;1.33;;;36.70;1.00;;;;;;5085478;28;20432;-63
2022/06/17 05:37:14;;;;;;;2.88;1.27;;;37.10;1.00;;;;;;5091903;28;20053;-63
2022/06/17 05:39:40;;;;;;;2.17;1.27;;;37.00;1.00;;;;;;5107644;28;20027;-62
2022/06/17 05:42:06;;;;;;;3.50;1.40;;;37.30;1.00;;;;;;5091612;28;20054;-63
2022/06/17 05:44:33;;;;;;;3.22;1.33;;;36.80;1.00;;;;;;5107628;28;20031;-54
2022/06/17 05:46:58;;;;;;;1.50;1.10;;;37.10;1.00;;;;;;5090270;28;20102;-52
2022/06/17 05:49:24;;;;;;;1.58;1.20;;;37.60;1.00;;;;;;5107952;28;20110;-53
2022/06/17 05:51:50;;;;;;;1.27;1.17;;;38.20;1.00;;;;;;5089131;28;20043;-50
2022/06/17 05:54:16;;;;;;;1.27;1.13;;;38.10;1.00;;;;;;5107626;28;20082;-51
2022/06/17 05:56:41;;;;;;;2.35;1.23;;;38.50;1.00;;;;;;5087951;28;20472;-54
2022/06/17 05:59:07;;;;;;;2.53;1.27;;;39.10;1.00;;;;;;5106309;28;20058;-50
2022/06/17 06:01:33;;;;;;;3.13;1.58;;;39.60;1.00;;;;;;5082896;28;20032;-56
2022/06/17 06:03:58;;;;;;;6.95;1.30;;;39.90;1.00;;;;;;5111483;28;20051;-51
2022/06/17 06:06:24;;;;;;;1.60;1.10;;;40.40;1.00;;;;;;5092184;28;20435;-54
2022/06/17 06:08:49;;;;;;;4.70;1.50;;;40.80;1.00;;;;;;5109273;28;20555;-53
2022/06/17 06:11:15;;;;;;;4.13;1.30;;;41.00;1.00;;;;;;5091704;28;20032;-53
2022/06/17 06:13:40;;;;;;;3.25;1.38;;;41.20;1.00;;;;;;5090153;28;20020;-48
2022/06/17 06:16:08;;;;;;;2.08;1.20;;;41.00;1.00;;;;;;5110942;28;20553;-53
2022/06/17 06:18:36;;;;;;;2.42;1.10;;;40.90;1.00;;;;;;5089689;28;20020;-51
2022/06/17 06:21:04;;;;;;;2.70;1.30;;;40.90;1.00;;;;;;5111971;28;20051;-53
2022/06/17 06:23:32;;;;;;;2.67;1.40;;;41.30;1.00;;;;;;5090377;28;20028;-49
2022/06/17 06:25:57;;;;;;;1.90;1.20;;;41.40;1.00;;;;;;5112328;28;20031;-51
2022/06/17 06:28:25;;;;;;;1.95;1.10;;;41.70;1.00;;;;;;5090279;28;20051;-56
2022/06/17 06:30:54;;;;;;;2.47;1.42;;;41.90;1.00;;;;;;5111678;28;20374;-52
2022/06/17 06:33:20;;;;;;;3.75;1.40;;;42.40;1.00;;;;;;5090189;28;20397;-55
2022/06/17 06:35:46;;;;;;;4.45;1.35;;;42.40;1.00;;;;;;5111547;28;20028;-53
2022/06/17 06:38:12;;;;;;;4.20;1.33;;;41.90;1.00;;;;;;5090519;28;20057;-56
2022/06/17 06:40:38;;;;;;;2.83;1.33;;;41.60;1.00;;;;;;5111541;28;20024;-56
2022/06/17 06:43:08;;;;;;;2.25;1.42;;;41.90;1.00;;;;;;5090220;28;20232;-55
2022/06/17 06:45:35;;;;;;;3.03;1.50;;;41.40;1.00;;;;;;5071318;28;20041;-54
2022/06/17 06:48:03;;;;;;;3.70;1.42;;;41.90;1.00;;;;;;5095938;28;20032;-55
2022/06/17 06:50:31;;;;;;;2.45;1.45;;;42.20;1.00;;;;;;5111493;28;20035;-54
2022/06/17 06:52:56;;;;;;;3.58;1.33;;;42.20;1.00;;;;;;5089824;28;20024;-55
2022/06/17 06:55:22;;;;;;;1.35;1.10;;;41.70;1.00;;;;;;5111489;28;20474;-54
2022/06/17 06:57:52;;;;;;;2.47;1.13;;;41.90;1.00;;;;;;5090001;28;20047;-52
2022/06/17 07:00:27;;;;;;;2.40;1.23;;;41.90;1.00;;;;;;5096332;28;20115;-56
2022/06/17 07:02:53;;;;;;;4.72;1.40;;;42.50;1.00;;;;;;5093732;28;20460;-53
2022/06/17 07:05:18;;;;;;;4.22;1.33;;;42.90;1.00;;;;;;5091805;28;20157;-53
2022/06/17 07:07:44;;;;;;;4.13;1.15;;;43.20;1.00;;;;;;5108802;28;20024;-56
2022/06/17 07:10:14;;;;;;;3.03;1.23;;;43.30;1.00;;;;;;5091774;28;20032;-51
2022/06/17 07:12:40;;;;;;;2.03;1.17;;;43.60;1.00;;;;;;5088515;28;20028;-54
2022/06/17 07:15:06;;;;;;;4.95;1.35;;;43.50;1.00;;;;;;5110607;28;20541;-54
2022/06/17 07:17:32;;;;;;;3.10;1.33;;;43.80;1.00;;;;;;5098903;28;20036;-55
2022/06/17 07:19:58;;;;;;;1.45;1.13;;;44.00;1.00;;;;;;5090049;28;20035;-55
2022/06/17 07:22:23;;;;;;;2.55;1.25;;;43.40;1.00;;;;;;5108779;28;20039;-51
2022/06/17 07:24:49;;;;;;;2.38;1.50;;;42.30;1.00;;;;;;5091574;28;20028;-52
2022/06/17 07:27:15;;;;;;;1.73;1.10;;;41.50;1.00;;;;;;5108410;28;20058;-56
2022/06/17 07:29:41;;;;;;;1.65;1.30;;;41.90;1.00;;;;;;5111282;28;20031;-56
2022/06/17 07:32:06;;;;;;;3.55;1.20;;;42.50;1.00;;;;;;5094809;28;20036;-56
2022/06/17 07:34:32;;;;;;;2.85;1.35;;;43.10;1.00;;;;;;5111467;28;20031;-54
2022/06/17 07:39:54;;;;;;;3.20;1.08;;;43.00;1.00;;;;;;5110908;28;20034;-54
2022/06/17 07:42:24;;;;;;;4.97;1.13;;;43.40;1.00;;;;;;5081900;28;20036;-56
2022/06/17 07:44:50;;;;;;;2.65;1.00;;;43.60;1.00;;;;;;5110855;28;20500;-52
2022/06/17 07:47:18;;;;;;;2.60;1.08;;;43.60;1.00;;;;;;5096015;28;20031;-55
2022/06/17 07:49:44;;;;;;;1.48;1.15;;;43.60;1.00;;;;;;5110717;28;20035;-53
2022/06/17 07:52:10;;;;;;;1.45;1.23;;;43.60;1.00;;;;;;5094988;28;20028;-57
2022/06/17 07:54:36;;;;;;;3.47;1.25;;;43.40;1.00;;;;;;5110830;28;20027;-54
2022/06/17 07:57:01;;;;;;;2.03;1.42;;;43.30;1.00;;;;;;5093688;28;20023;-56
2022/06/17 07:59:27;;;;;;;2.55;1.20;;;43.20;1.00;;;;;;5108846;28;20024;-56
2022/06/17 08:01:52;;;;;;;2.53;1.88;;;42.90;1.00;;;;;;5085509;28;20020;-56
2022/06/17 08:04:18;;;;;;;3.97;1.33;;;42.80;1.00;;;;;;5110702;28;20039;-56
2022/06/17 08:06:49;;;;;;;1.35;0.90;;;42.00;1.00;;;;;;5091203;28;20036;-56
2022/06/17 08:09:19;;;;;;;3.50;1.25;;;41.90;1.00;;;;;;5110291;28;20030;-56
2022/06/17 08:11:46;;;;;;;1.52;1.13;;;42.70;1.00;;;;;;5073102;28;20115;-55
2022/06/17 08:14:12;;;;;;;4.10;1.30;;;42.70;1.00;;;;;;5110512;28;20023;-57
2022/06/17 08:16:38;;;;;;;1.35;0.98;;;42.80;1.00;;;;;;5089878;28;20044;-55
2022/06/17 08:19:04;;;;;;;2.10;1.25;;;42.60;1.00;;;;;;5110244;28;20020;-53
2022/06/17 08:21:31;;;;;;;2.75;1.25;;;42.80;1.00;;;;;;5088952;28;20499;-57
2022/06/17 08:23:57;;;;;;;2.40;1.20;;;42.50;1.00;;;;;;5110034;28;20562;-55
2022/06/17 08:26:22;;;;;;;2.35;1.55;;;42.40;1.00;;;;;;5090278;28;20120;-56
2022/06/17 08:28:48;;;;;;;2.83;1.42;;;42.60;1.00;;;;;;5107338;28;20119;-56
2022/06/17 08:31:14;;;;;;;1.65;1.35;;;42.70;1.00;;;;;;5090165;28;20522;-50
2022/06/17 08:33:39;;;;;;;3.17;1.00;;;42.70;1.00;;;;;;5088636;28;20092;-53
2022/06/17 08:36:09;;;;;;;2.88;1.48;;;43.10;1.00;;;;;;5108944;28;20024;-53
2022/06/17 08:38:38;;;;;;;2.47;1.23;;;42.80;1.00;;;;;;5087861;28;20032;-56
2022/06/17 08:41:11;;;;;;;3.90;1.25;;;43.10;1.00;;;;;;5109823;28;20019;-57
2022/06/17 08:43:40;;;;;;;2.53;1.25;;;43.20;1.00;;;;;;5086072;28;20039;-56
2022/06/17 08:46:44;;;;;;;1.73;0.85;;;43.10;1.00;;;;;;5109164;28;20035;-56
2022/06/17 08:49:33;;;;;;;1.00;0.90;;;43.10;1.00;;;;;;5109541;28;20100;-57
2022/06/17 08:52:37;;;;;;;3.45;1.15;;;42.90;1.00;;;;;;5076033;28;20027;-55
2022/06/17 08:55:17;;;;;;;3.15;0.95;;;42.10;1.00;;;;;;5109622;28;20482;-56
2022/06/17 08:58:10;;;;;;;1.15;0.85;;;41.80;1.00;;;;;;5088217;28;20498;-57
2022/06/17 09:01:03;;;;;;;1.27;0.80;;;41.90;1.00;;;;;;5088068;28;20424;-54
2022/06/17 09:03:51;;;;;;;1.73;1.20;;;41.50;1.00;;;;;;5084260;28;20027;-55
2022/06/17 09:07:02;;;;;;;6.57;0.95;;;41.70;1.00;;;;;;5068857;28;20028;-57
2022/06/17 09:09:51;;;;;;;1.02;0.80;;;41.70;1.00;;;;;;5044945;28;20051;-63
2022/06/17 09:12:58;;;;;;;1.10;0.80;;;41.80;1.00;;;;;;5081276;28;20028;-63
2022/06/17 09:15:44;;;;;;;1.30;0.82;;;41.80;1.00;;;;;;5068695;28;20036;-63
2022/06/17 09:18:35;;;;;;;1.02;0.82;;;42.20;1.00;;;;;;5081331;28;20404;-63
2022/06/17 09:21:07;;;;;;;1.80;0.80;;;41.40;1.00;;;;;;5068874;28;20032;-63
2022/06/17 09:23:38;;;;;;;0.95;0.90;;;41.60;1.00;;;;;;5087308;28;20115;-64
2022/06/17 09:26:16;;;;;;;1.95;0.90;;;41.90;1.00;;;;;;5068288;28;20048;-63
2022/06/17 09:28:49;;;;;;;1.25;0.93;;;41.90;1.00;;;;;;5085608;28;20047;-64
2022/06/17 09:31:20;;;;;;;1.25;1.00;;;42.10;1.00;;;;;;5088768;28;20028;-64
2022/06/17 09:33:54;;;;;;;1.50;0.88;;;42.40;1.00;;;;;;5086449;28;20442;-64
2022/06/17 09:36:34;;;;;;;0.77;0.70;;;42.80;1.00;;;;;;5068324;28;20515;-64
2022/06/17 09:39:05;;;;;;;0.93;0.70;;;43.10;1.00;;;;;;5068193;28;20439;-63
2022/06/17 09:41:37;;;;;;;1.00;0.80;;;43.20;1.00;;;;;;5067916;28;20028;-63
2022/06/17 09:44:16;;;;;;;1.50;1.08;;;43.70;1.00;;;;;;5108959;28;20081;-63
2022/06/17 09:46:53;;;;;;;1.42;0.77;;;43.30;1.00;;;;;;5070672;28;20036;-64
2022/06/17 09:49:36;;;;;;;1.10;0.80;;;43.40;1.00;;;;;;5108604;28;20035;-64
2022/06/17 09:52:07;;;;;;;2.30;0.70;;;43.30;1.00;;;;;;5076632;28;20058;-63
2022/06/17 09:54:56;;;;;;;2.28;0.70;;;43.30;1.00;;;;;;5108721;28;20031;-64
2022/06/17 09:57:43;;;;;;;1.27;0.80;;;43.20;1.00;;;;;;5082127;28;20032;-64
2022/06/17 10:00:11;;;;;;;1.67;0.90;;;41.20;1.00;;;;;;5088732;28;20115;-64
2022/06/17 10:02:53;;;;;;;1.50;0.80;;;38.80;1.00;;;;;;5106465;28;20491;-64
2022/06/17 10:05:36;;;;;;;1.83;0.73;;;36.60;1.00;;;;;;5088706;28;20038;-64
2022/06/17 10:08:32;;;;;;;1.75;0.77;;;34.70;1.00;;;;;;5079695;28;20490;-64
2022/06/17 10:11:23;;;;;;;1.55;0.80;;;33.10;1.00;;;;;;5068163;28;20051;-62
2022/06/17 10:13:52;;;;;;;2.88;0.60;;;32.20;1.00;;;;;;5086172;28;20024;-64
2022/06/17 10:19:40;;;;;;;0.90;0.80;;;30.80;1.00;;;;;;5087013;28;20047;-64
2022/06/17 10:22:34;;;;;;;1.40;1.00;;;30.30;1.00;;;;;;5106627;28;20031;-64
2022/06/17 10:25:17;;;;;;;1.52;0.85;;;29.80;1.00;;;;;;5081028;28;20040;-63
2022/06/17 10:28:15;;;;;;;2.67;1.05;;;29.40;1.00;;;;;;5084673;28;20488;-63
2022/06/17 10:31:03;;;;;;;1.80;0.80;;;29.20;1.00;;;;;;5049314;28;20104;-63
2022/06/17 10:33:32;;;;;;;1.90;0.82;;;29.00;1.00;;;;;;5106633;28;20102;-63
2022/06/17 10:35:57;;;;;;;1.63;0.88;;;28.70;1.00;;;;;;5084889;28;20538;-62
2022/06/17 10:38:31;;;;;;;2.03;0.80;;;28.60;1.00;;;;;;5106438;28;20076;-64
2022/06/17 10:40:58;;;;;;;1.95;1.17;;;28.50;1.00;;;;;;5081327;28;20078;-62
2022/06/17 10:43:45;;;;;;;2.08;0.90;;;28.30;1.00;;;;;;5106226;28;20031;-63
2022/06/17 10:46:21;;;;;;;1.83;0.80;;;28.20;1.00;;;;;;5082667;28;20570;-63
2022/06/17 10:49:00;;;;;;;;;;;28.20;1.00;;;;;;5069663;28;20032;-63
2022/06/17 10:51:27;;;;;;;2.42;0.80;;;28.20;1.00;;;;;;5070311;28;19908;-64
2022/06/17 10:53:59;;;;;;;1.27;0.70;;;28.10;1.00;;;;;;5109077;28;20340;-63
2022/06/17 10:56:48;;;;;;;2.70;0.60;;;28.00;1.00;;;;;;5110404;28;20023;-63
2022/06/17 10:59:13;;;;;;;2.53;0.90;;;28.00;1.00;;;;;;5071895;28;20106;-63
2022/06/17 11:01:45;;;;;;;0.73;0.70;;;28.00;1.00;;;;;;5104188;28;20031;-63
2022/06/17 11:04:12;;;;;;;5.03;1.10;;;28.10;1.00;;;;;;5090199;28;20034;-62
2022/06/17 11:06:49;;;;;;;4.95;1.08;;;28.10;1.00;;;;;;5110395;28;20499;-63
2022/06/17 11:09:24;;;;;;;1.23;0.70;;;28.00;1.00;;;;;;5071820;28;20075;-62
2022/06/17 11:12:04;;;;;;;2.50;1.00;;;28.00;1.00;;;;;;5110528;28;20028;-63
2022/06/17 11:14:44;;;;;;;1.35;0.60;;;28.00;1.00;;;;;;5076089;28;20491;-63
2022/06/17 11:17:41;;;;;;;2.10;0.80;;;27.90;1.00;;;;;;5110450;28;20031;-62
2022/06/17 11:20:19;;;;;;;1.88;0.90;;;27.70;1.00;;;;;;5086796;28;20051;-62
2022/06/17 11:22:54;;;;;;;0.95;0.73;;;27.60;1.00;;;;;;5069101;28;20111;-63
2022/06/17 11:25:31;;;;;;;1.35;0.93;;;27.50;1.00;;;;;;5107289;28;20038;-63
2022/06/17 11:28:07;;;;;;;0.85;0.77;;;27.30;1.00;;;;;;5100953;28;20043;-63
2022/06/17 11:30:37;;;;;;;4.93;0.95;;;27.20;1.00;;;;;;5081016;28;20032;-63
2022/06/17 11:33:19;;;;;;;1.38;0.80;;;27.20;1.00;;;;;;5069172;28;20093;-63
2022/06/17 11:35:44;;;;;;;1.48;0.95;;;27.20;1.00;;;;;;5082130;28;20491;-62
2022/06/17 11:38:15;;;;;;;0.82;0.63;;;27.30;1.00;;;;;;5109232;28;20031;-62
2022/06/17 11:40:53;;;;;;;1.25;0.88;;;27.30;1.00;;;;;;5081488;28;20020;-62
2022/06/17 11:43:33;;;;;;;3.17;1.20;;;27.30;1.00;;;;;;5109360;28;20473;-62
2022/06/17 11:46:07;;;;;;;2.55;1.00;;;27.20;1.00;;;;;;5083295;28;20028;-61
2022/06/17 11:48:38;;;;;;;0.98;0.70;;;27.10;1.00;;;;;;5068925;28;20472;-55
2022/06/17 11:51:11;;;;;;;2.67;0.70;;;27.10;1.00;;;;;;5084472;28;20059;-62
2022/06/17 11:53:56;;;;;;;1.85;0.90;;;27.10;1.00;;;;;;5109015;28;20327;-61
2022/06/17 11:56:37;;;;;;;0.82;0.82;;;26.90;1.00;;;;;;5087064;28;20043;-62
2022/06/17 11:59:16;;;;;;;2.30;1.00;;;26.70;1.00;;;;;;5066987;28;20115;-61
2022/06/17 12:02:02;;;;;;;1.13;0.73;;;26.70;1.00;;;;;;5106045;28;20016;-62
2022/06/17 12:05:06;;;;;;;;;;;26.80;1.00;;;;;;5074897;28;20383;-62
2022/06/17 12:07:40;;;;;;;1.15;0.60;;;26.80;1.00;;;;;;5025903;28;20388;-62
2022/06/17 12:10:28;;;;;;;0.95;0.75;;;26.80;1.00;;;;;;5001372;28;20042;-63
2022/06/17 12:12:58;;;;;;;2.10;0.90;;;26.70;1.00;;;;;;5041055;28;20047;-64
2022/06/17 12:15:26;;;;;;;2.17;0.60;;;26.50;1.00;;;;;;5090066;28;20030;-63
2022/06/17 12:17:55;;;;;;;0.50;0.50;;;26.60;1.00;;;;;;5089364;28;20063;-63
2022/06/17 12:20:27;;;;;;;1.30;0.98;;;26.60;1.00;;;;;;5106703;28;20479;-63
2022/06/17 12:23:06;;;;;;;1.08;0.65;;;26.70;1.00;;;;;;5068093;28;20169;-64
2022/06/17 12:25:46;;;;;;;0.80;0.70;;;26.70;1.00;;;;;;5079887;28;20104;-63
2022/06/17 12:28:50;;;;;;;2.60;0.73;;;26.70;1.00;;;;;;5069013;28;20575;-63
2022/06/17 12:31:32;;;;;;;0.82;0.82;;;26.90;1.00;;;;;;5056219;28;20036;-63
2022/06/17 12:34:08;;;;;;;0.77;0.70;;;27.00;1.00;;;;;;5069520;28;20028;-62
2022/06/17 12:36:49;;;;;;;0.77;0.77;;;26.80;1.00;;;;;;5069294;28;20075;-63
2022/06/17 12:39:37;;;;;;;0.63;0.63;;;26.70;1.00;;;;;;5071308;28;20452;-63
2022/06/17 12:42:15;;;;;;;0.90;0.70;;;26.80;1.00;;;;;;5109550;28;20043;-63
2022/06/17 12:44:58;;;;;;;0.82;0.60;;;27.00;1.00;;;;;;5077249;28;20508;-63
2022/06/17 12:47:44;;;;;;;2.35;0.80;;;27.10;1.00;;;;;;5109580;28;20084;-63
2022/06/17 12:53:18;;;;;;;1.00;0.77;;;27.20;1.00;;;;;;5068843;28;19969;-63
2022/06/17 12:56:11;;;;;;;1.58;0.60;;;27.30;1.00;;;;;;5081557;28;20408;-63
2022/06/17 12:58:54;;;;;;;1.65;0.65;;;27.40;1.00;;;;;;5069024;28;20043;-62
2022/06/17 13:01:27;;;;;;;2.95;0.77;;;27.40;1.00;;;;;;5078333;28;20665;-62
2022/06/17 13:04:19;;;;;;;2.42;0.65;;;27.50;1.00;;;;;;5068635;28;20028;-63
2022/06/17 13:07:07;;;;;;;1.10;1.00;;;27.70;1.00;;;;;;5068628;28;20496;-62
2022/06/17 13:09:57;;;;;;;2.15;0.70;;;27.90;1.00;;;;;;5075633;28;20057;-54
2022/06/17 13:12:22;;;;;;;2.88;0.82;;;28.00;1.00;;;;;;5109263;28;20028;-50
2022/06/17 13:14:51;;;;;;;1.60;0.77;;;28.20;1.00;;;;;;5094185;28;20073;-56
2022/06/17 13:17:45;;;;;;;2.20;0.80;;;28.40;1.00;;;;;;5109042;28;20060;-52
2022/06/17 13:20:19;;;;;;;0.88;0.60;;;28.60;1.00;;;;;;5086113;28;20110;-56
2022/06/17 13:23:08;;;;;;;0.57;0.57;;;28.80;1.00;;;;;;5068759;28;20507;-56
2022/06/17 13:25:55;;;;;;;1.27;0.77;;;29.00;1.00;;;;;;5079903;28;20502;-53
2022/06/17 13:28:42;;;;;;;1.42;0.90;;;28.90;1.00;;;;;;5068140;28;20051;-56
2022/06/17 13:31:27;;;;;;;1.77;1.15;;;29.00;1.00;;;;;;5084655;28;20054;-54
2022/06/17 13:34:01;;;;;;;0.70;0.60;;;29.10;1.00;;;;;;5068399;28;20581;-56
2022/06/17 13:36:55;;;;;;;0.70;0.60;;;29.10;1.00;;;;;;5068390;28;20029;-56
2022/06/17 13:39:26;;;;;;;1.67;0.52;;;29.10;1.00;;;;;;5072110;28;20039;-53